sensor_id;sensor_type;location;lat;lon;timestamp;pressure;altitude;pressure_sealevel;temperature;humidity
39491;BME280;25175;50.140;18.990;2022-07-17T00:01:31;99231.63;;;12.58;68.36
39491;BME280;25175;50.140;18.990;2022-07-17T00:04:34;99235.69;;;12.60;68.31
39491;BME280;25175;50.140;18.990;2022-07-17T00:07:37;99237.69;;;12.58;68.20
39491;BME280;25175;50.140;18.990;2022-07-17T00:10:41;99242.94;;;12.58;68.48
39491;BME280;25175;50.140;18.990;2022-07-17T00:13:44;99234.25;;;12.58;68.57
39491;BME280;25175;50.140;18.990;2022-07-17T00:16:46;99245.56;;;12.58;68.28
39491;BME280;25175;50.140;18.990;2022-07-17T00:19:48;99236.66;;;12.53;68.47
39491;BME280;25175;50.140;18.990;2022-07-17T00:22:52;99226.94;;;12.53;68.43
39491;BME280;25175;50.140;18.990;2022-07-17T00:25:54;99227.94;;;12.52;68.53
39491;BME280;25175;50.140;18.990;2022-07-17T00:28:56;99241.72;;;12.54;68.27
39491;BME280;25175;50.140;18.990;2022-07-17T00:31:59;99234.03;;;12.53;68.35
39491;BME280;25175;50.140;18.990;2022-07-17T00:35:01;99237.84;;;12.50;68.31
39491;BME280;25175;50.140;18.990;2022-07-17T00:38:04;99230.75;;;12.44;68.39
39491;BME280;25175;50.140;18.990;2022-07-17T00:41:06;99238.41;;;12.39;68.16
39491;BME280;25175;50.140;18.990;2022-07-17T00:44:11;99237.81;;;12.37;68.71
39491;BME280;25175;50.140;18.990;2022-07-17T00:47:15;99246.94;;;12.48;68.57
39491;BME280;25175;50.140;18.990;2022-07-17T00:50:17;99246.53;;;12.51;67.93
39491;BME280;25175;50.140;18.990;2022-07-17T00:53:21;99252.38;;;12.46;67.86
39491;BME280;25175;50.140;18.990;2022-07-17T00:56:23;99246.09;;;12.41;68.14
39491;BME280;25175;50.140;18.990;2022-07-17T00:59:26;99248.69;;;12.34;68.13
39491;BME280;25175;50.140;18.990;2022-07-17T01:02:30;99241.81;;;12.33;68.23
39491;BME280;25175;50.140;18.990;2022-07-17T01:05:32;99242.44;;;12.35;68.15
39491;BME280;25175;50.140;18.990;2022-07-17T01:08:36;99252.94;;;12.35;68.71
39491;BME280;25175;50.140;18.990;2022-07-17T01:11:39;99252.50;;;12.32;67.99
39491;BME280;25175;50.140;18.990;2022-07-17T01:14:41;99250.66;;;12.26;68.09
39491;BME280;25175;50.140;18.990;2022-07-17T01:17:44;99252.47;;;12.25;68.31
39491;BME280;25175;50.140;18.990;2022-07-17T01:20:48;99255.91;;;12.26;68.25
39491;BME280;25175;50.140;18.990;2022-07-17T01:23:52;99256.53;;;12.28;68.37
39491;BME280;25175;50.140;18.990;2022-07-17T01:26:55;99255.91;;;12.26;67.84
39491;BME280;25175;50.140;18.990;2022-07-17T01:29:57;99252.22;;;12.14;68.00
39491;BME280;25175;50.140;18.990;2022-07-17T01:32:59;99244.88;;;12.09;68.21
39491;BME280;25175;50.140;18.990;2022-07-17T01:36:01;99255.22;;;12.11;68.11
39491;BME280;25175;50.140;18.990;2022-07-17T01:39:05;99264.53;;;12.13;67.99
39491;BME280;25175;50.140;18.990;2022-07-17T01:42:07;99262.97;;;12.19;67.98
39491;BME280;25175;50.140;18.990;2022-07-17T01:45:10;99262.97;;;12.19;67.67
39491;BME280;25175;50.140;18.990;2022-07-17T01:48:23;99264.16;;;12.16;67.78
39491;BME280;25175;50.140;18.990;2022-07-17T01:51:25;99260.09;;;12.14;67.72
39491;BME280;25175;50.140;18.990;2022-07-17T01:54:28;99266.31;;;12.06;67.74
39491;BME280;25175;50.140;18.990;2022-07-17T01:57:30;99245.47;;;12.05;68.01
39491;BME280;25175;50.140;18.990;2022-07-17T02:00:33;99259.19;;;12.00;67.86
39491;BME280;25175;50.140;18.990;2022-07-17T02:03:36;99258.38;;;12.00;67.88
39491;BME280;25175;50.140;18.990;2022-07-17T02:06:38;99257.16;;;11.96;67.85
39491;BME280;25175;50.140;18.990;2022-07-17T02:09:41;99260.28;;;11.85;67.66
39491;BME280;25175;50.140;18.990;2022-07-17T02:12:43;99252.16;;;11.80;68.33
39491;BME280;25175;50.140;18.990;2022-07-17T02:15:46;99252.69;;;11.75;68.19
39491;BME280;25175;50.140;18.990;2022-07-17T02:18:48;99250.72;;;11.77;68.03
39491;BME280;25175;50.140;18.990;2022-07-17T02:21:50;99247.25;;;11.77;67.56
39491;BME280;25175;50.140;18.990;2022-07-17T02:24:53;99260.38;;;11.77;67.73
39491;BME280;25175;50.140;18.990;2022-07-17T02:27:55;99254.97;;;11.78;67.69
39491;BME280;25175;50.140;18.990;2022-07-17T02:30:57;99261.00;;;11.79;67.62
39491;BME280;25175;50.140;18.990;2022-07-17T02:33:59;99264.63;;;11.78;67.24
39491;BME280;25175;50.140;18.990;2022-07-17T02:37:02;99257.41;;;11.80;67.42
39491;BME280;25175;50.140;18.990;2022-07-17T02:40:06;99252.31;;;11.78;67.03
39491;BME280;25175;50.140;18.990;2022-07-17T02:43:09;99254.56;;;11.81;67.13
39491;BME280;25175;50.140;18.990;2022-07-17T02:46:11;99250.50;;;11.79;66.94
39491;BME280;25175;50.140;18.990;2022-07-17T02:49:14;99255.75;;;11.79;67.23
39491;BME280;25175;50.140;18.990;2022-07-17T02:52:16;99255.97;;;11.77;67.24
39491;BME280;25175;50.140;18.990;2022-07-17T02:55:21;99260.22;;;11.78;67.40
39491;BME280;25175;50.140;18.990;2022-07-17T02:58:23;99263.00;;;11.77;66.89
39491;BME280;25175;50.140;18.990;2022-07-17T03:01:26;99256.50;;;11.73;67.15
39491;BME280;25175;50.140;18.990;2022-07-17T03:04:28;99269.38;;;11.68;66.79
39491;BME280;25175;50.140;18.990;2022-07-17T03:07:30;99273.34;;;11.57;67.34
39491;BME280;25175;50.140;18.990;2022-07-17T03:10:34;99274.47;;;11.48;67.95
39491;BME280;25175;50.140;18.990;2022-07-17T03:13:37;99282.91;;;11.44;68.10
39491;BME280;25175;50.140;18.990;2022-07-17T03:16:39;99276.47;;;11.46;67.97
39491;BME280;25175;50.140;18.990;2022-07-17T03:19:41;99284.16;;;11.48;68.08
39491;BME280;25175;50.140;18.990;2022-07-17T03:22:44;99285.78;;;11.49;67.82
39491;BME280;25175;50.140;18.990;2022-07-17T03:25:47;99292.84;;;11.48;67.76
39491;BME280;25175;50.140;18.990;2022-07-17T03:28:50;99290.41;;;11.47;68.41
39491;BME280;25175;50.140;18.990;2022-07-17T03:31:52;99297.47;;;11.46;68.24
39491;BME280;25175;50.140;18.990;2022-07-17T03:34:54;99297.81;;;11.43;68.12
39491;BME280;25175;50.140;18.990;2022-07-17T03:37:56;99289.91;;;11.37;68.44
39491;BME280;25175;50.140;18.990;2022-07-17T03:41:00;99299.75;;;11.35;68.54
39491;BME280;25175;50.140;18.990;2022-07-17T03:44:02;99302.16;;;11.30;68.75
39491;BME280;25175;50.140;18.990;2022-07-17T03:47:05;99312.66;;;11.30;68.71
39491;BME280;25175;50.140;18.990;2022-07-17T03:50:07;99314.88;;;11.33;68.92
39491;BME280;25175;50.140;18.990;2022-07-17T03:53:09;99305.47;;;11.38;69.13
39491;BME280;25175;50.140;18.990;2022-07-17T03:56:13;99305.84;;;11.35;69.35
39491;BME280;25175;50.140;18.990;2022-07-17T03:59:15;99314.53;;;11.36;69.42
39491;BME280;25175;50.140;18.990;2022-07-17T04:02:17;99315.16;;;11.38;69.79
39491;BME280;25175;50.140;18.990;2022-07-17T04:05:19;99314.97;;;11.39;69.98
39491;BME280;25175;50.140;18.990;2022-07-17T04:08:22;99317.78;;;11.38;69.83
39491;BME280;25175;50.140;18.990;2022-07-17T04:11:25;99326.81;;;11.35;70.12
39491;BME280;25175;50.140;18.990;2022-07-17T04:14:27;99318.50;;;11.32;70.05
39491;BME280;25175;50.140;18.990;2022-07-17T04:17:29;99320.31;;;11.31;69.91
39491;BME280;25175;50.140;18.990;2022-07-17T04:20:32;99333.25;;;11.33;70.58
39491;BME280;25175;50.140;18.990;2022-07-17T04:23:35;99331.25;;;11.35;70.43
39491;BME280;25175;50.140;18.990;2022-07-17T04:26:38;99333.69;;;11.36;70.42
39491;BME280;25175;50.140;18.990;2022-07-17T04:29:40;99340.38;;;11.39;70.75
39491;BME280;25175;50.140;18.990;2022-07-17T04:32:43;99347.69;;;11.43;70.72
39491;BME280;25175;50.140;18.990;2022-07-17T04:35:45;99352.38;;;11.48;70.68
39491;BME280;25175;50.140;18.990;2022-07-17T04:38:47;99349.13;;;11.46;70.40
39491;BME280;25175;50.140;18.990;2022-07-17T04:41:51;99357.63;;;11.48;70.56
39491;BME280;25175;50.140;18.990;2022-07-17T04:44:53;99357.91;;;11.53;70.79
39491;BME280;25175;50.140;18.990;2022-07-17T04:47:55;99354.72;;;11.57;70.72
39491;BME280;25175;50.140;18.990;2022-07-17T04:50:57;99359.03;;;11.65;70.64
39491;BME280;25175;50.140;18.990;2022-07-17T04:53:59;99353.63;;;11.73;70.75
39491;BME280;25175;50.140;18.990;2022-07-17T04:57:03;99359.97;;;11.78;70.51
39491;BME280;25175;50.140;18.990;2022-07-17T05:00:07;99358.78;;;11.81;70.57
39491;BME280;25175;50.140;18.990;2022-07-17T05:03:10;99354.41;;;11.88;70.41
39491;BME280;25175;50.140;18.990;2022-07-17T05:06:12;99362.56;;;11.93;70.57
39491;BME280;25175;50.140;18.990;2022-07-17T05:09:14;99352.13;;;11.99;70.62
39491;BME280;25175;50.140;18.990;2022-07-17T05:12:18;99356.63;;;12.05;70.36
39491;BME280;25175;50.140;18.990;2022-07-17T05:15:20;99356.03;;;12.10;70.15
39491;BME280;25175;50.140;18.990;2022-07-17T05:18:22;99365.16;;;12.14;70.19
39491;BME280;25175;50.140;18.990;2022-07-17T05:21:24;99363.56;;;12.19;70.15
39491;BME280;25175;50.140;18.990;2022-07-17T05:24:27;99359.41;;;12.25;70.00
39491;BME280;25175;50.140;18.990;2022-07-17T05:27:31;99356.00;;;12.31;70.04
39491;BME280;25175;50.140;18.990;2022-07-17T05:30:33;99364.72;;;12.38;69.98
39491;BME280;25175;50.140;18.990;2022-07-17T05:33:35;99367.84;;;12.48;69.94
39491;BME280;25175;50.140;18.990;2022-07-17T05:36:37;99370.94;;;12.58;69.93
39491;BME280;25175;50.140;18.990;2022-07-17T05:39:39;99373.41;;;12.66;68.85
39491;BME280;25175;50.140;18.990;2022-07-17T05:42:43;99378.13;;;12.77;67.79
39491;BME280;25175;50.140;18.990;2022-07-17T05:45:45;99385.06;;;12.84;66.80
39491;BME280;25175;50.140;18.990;2022-07-17T05:48:47;99376.19;;;12.92;65.79
39491;BME280;25175;50.140;18.990;2022-07-17T05:51:49;99388.56;;;12.98;65.31
39491;BME280;25175;50.140;18.990;2022-07-17T05:54:51;99381.34;;;13.06;65.33
39491;BME280;25175;50.140;18.990;2022-07-17T05:57:55;99375.53;;;13.17;65.19
39491;BME280;25175;50.140;18.990;2022-07-17T06:00:57;99381.44;;;13.26;64.20
39491;BME280;25175;50.140;18.990;2022-07-17T06:04:00;99385.72;;;13.33;63.94
39491;BME280;25175;50.140;18.990;2022-07-17T06:07:02;99378.28;;;13.43;64.33
39491;BME280;25175;50.140;18.990;2022-07-17T06:10:05;99377.88;;;13.53;62.85
39491;BME280;25175;50.140;18.990;2022-07-17T06:13:09;99382.97;;;13.61;62.44
39491;BME280;25175;50.140;18.990;2022-07-17T06:16:11;99388.66;;;13.71;62.94
39491;BME280;25175;50.140;18.990;2022-07-17T06:19:14;99388.69;;;13.77;62.22
39491;BME280;25175;50.140;18.990;2022-07-17T06:22:16;99389.31;;;13.86;62.44
39491;BME280;25175;50.140;18.990;2022-07-17T06:25:18;99404.91;;;13.94;61.81
39491;BME280;25175;50.140;18.990;2022-07-17T06:28:21;99402.34;;;14.07;62.08
39491;BME280;25175;50.140;18.990;2022-07-17T06:31:24;99404.16;;;14.13;61.46
39491;BME280;25175;50.140;18.990;2022-07-17T06:34:26;99409.22;;;14.21;61.02
39491;BME280;25175;50.140;18.990;2022-07-17T06:37:28;99401.94;;;14.29;61.11
39491;BME280;25175;50.140;18.990;2022-07-17T06:40:30;99405.59;;;14.41;61.94
39491;BME280;25175;50.140;18.990;2022-07-17T06:43:34;99406.81;;;14.52;61.27
39491;BME280;25175;50.140;18.990;2022-07-17T06:46:36;99414.72;;;14.58;60.90
39491;BME280;25175;50.140;18.990;2022-07-17T06:49:38;99413.69;;;14.66;60.81
39491;BME280;25175;50.140;18.990;2022-07-17T06:52:40;99413.66;;;14.79;61.18
39491;BME280;25175;50.140;18.990;2022-07-17T06:55:43;99414.66;;;14.91;60.37
39491;BME280;25175;50.140;18.990;2022-07-17T06:58:46;99412.84;;;14.98;60.06
39491;BME280;25175;50.140;18.990;2022-07-17T07:01:48;99409.78;;;15.07;60.44
39491;BME280;25175;50.140;18.990;2022-07-17T07:04:50;99412.56;;;15.19;60.26
39491;BME280;25175;50.140;18.990;2022-07-17T07:07:52;99415.38;;;15.30;59.96
39491;BME280;25175;50.140;18.990;2022-07-17T07:10:55;99410.06;;;15.37;58.74
39491;BME280;25175;50.140;18.990;2022-07-17T07:13:59;99414.09;;;15.46;59.47
39491;BME280;25175;50.140;18.990;2022-07-17T07:17:01;99418.13;;;15.55;59.16
39491;BME280;25175;50.140;18.990;2022-07-17T07:20:04;99416.25;;;15.62;58.31
39491;BME280;25175;50.140;18.990;2022-07-17T07:23:06;99414.19;;;15.70;57.94
39491;BME280;25175;50.140;18.990;2022-07-17T07:26:09;99422.66;;;15.78;57.83
39491;BME280;25175;50.140;18.990;2022-07-17T07:29:12;99414.13;;;15.83;56.81
39491;BME280;25175;50.140;18.990;2022-07-17T07:32:15;99426.72;;;15.88;55.63
39491;BME280;25175;50.140;18.990;2022-07-17T07:35:17;99417.13;;;15.93;57.32
39491;BME280;25175;50.140;18.990;2022-07-17T07:38:19;99429.66;;;16.04;57.24
39491;BME280;25175;50.140;18.990;2022-07-17T07:41:21;99428.59;;;16.12;56.90
39491;BME280;25175;50.140;18.990;2022-07-17T07:44:25;99434.63;;;16.18;56.67
39491;BME280;25175;50.140;18.990;2022-07-17T07:47:27;99433.56;;;16.26;56.50
39491;BME280;25175;50.140;18.990;2022-07-17T07:50:29;99432.50;;;16.33;56.36
39491;BME280;25175;50.140;18.990;2022-07-17T07:53:32;99444.00;;;16.45;56.79
39491;BME280;25175;50.140;18.990;2022-07-17T07:56:34;99447.97;;;16.61;55.39
39491;BME280;25175;50.140;18.990;2022-07-17T07:59:38;99438.31;;;16.73;56.50
39491;BME280;25175;50.140;18.990;2022-07-17T08:02:40;99442.88;;;16.84;55.59
39491;BME280;25175;50.140;18.990;2022-07-17T08:05:43;99446.28;;;16.91;54.23
39491;BME280;25175;50.140;18.990;2022-07-17T08:08:45;99446.06;;;16.93;52.83
39491;BME280;25175;50.140;18.990;2022-07-17T08:11:47;99447.88;;;16.92;53.71
39491;BME280;25175;50.140;18.990;2022-07-17T08:14:51;99441.34;;;16.94;52.97
39491;BME280;25175;50.140;18.990;2022-07-17T08:17:54;99447.16;;;17.03;54.54
39491;BME280;25175;50.140;18.990;2022-07-17T08:20:56;99444.66;;;17.08;53.22
39491;BME280;25175;50.140;18.990;2022-07-17T08:23:58;99449.69;;;17.16;52.31
39491;BME280;25175;50.140;18.990;2022-07-17T08:27:00;99446.53;;;17.25;51.33
39491;BME280;25175;50.140;18.990;2022-07-17T08:30:05;99448.84;;;17.33;52.14
39491;BME280;25175;50.140;18.990;2022-07-17T08:33:09;99446.94;;;17.40;52.08
39491;BME280;25175;50.140;18.990;2022-07-17T08:36:11;99446.59;;;17.55;52.81
39491;BME280;25175;50.140;18.990;2022-07-17T08:39:13;99444.00;;;17.66;51.02
39491;BME280;25175;50.140;18.990;2022-07-17T08:42:16;99457.88;;;17.80;49.17
39491;BME280;25175;50.140;18.990;2022-07-17T08:45:19;99454.25;;;17.92;49.18
39491;BME280;25175;50.140;18.990;2022-07-17T08:48:26;99446.94;;;18.06;50.24
39491;BME280;25175;50.140;18.990;2022-07-17T08:51:30;99446.94;;;18.17;47.66
39491;BME280;25175;50.140;18.990;2022-07-17T08:54:32;99448.59;;;18.18;47.25
39491;BME280;25175;50.140;18.990;2022-07-17T08:57:37;99460.13;;;18.24;48.98
39491;BME280;25175;50.140;18.990;2022-07-17T09:00:41;99455.66;;;18.36;48.59
39491;BME280;25175;50.140;18.990;2022-07-17T09:03:53;99455.94;;;18.46;47.92
39491;BME280;25175;50.140;18.990;2022-07-17T09:06:59;99453.84;;;18.36;47.91
39491;BME280;25175;50.140;18.990;2022-07-17T09:10:04;99452.44;;;18.34;47.21
39491;BME280;25175;50.140;18.990;2022-07-17T09:13:16;99460.50;;;18.27;46.67
39491;BME280;25175;50.140;18.990;2022-07-17T09:16:20;99458.09;;;18.37;46.71
39491;BME280;25175;50.140;18.990;2022-07-17T09:19:27;99453.75;;;18.54;46.59
39491;BME280;25175;50.140;18.990;2022-07-17T09:22:29;99465.31;;;18.71;44.78
39491;BME280;25175;50.140;18.990;2022-07-17T09:25:36;99470.03;;;18.69;45.17
39491;BME280;25175;50.140;18.990;2022-07-17T09:28:44;99464.38;;;18.54;45.39
39491;BME280;25175;50.140;18.990;2022-07-17T09:31:51;99463.88;;;18.34;45.82
39491;BME280;25175;50.140;18.990;2022-07-17T09:34:55;99461.13;;;18.41;46.35
39491;BME280;25175;50.140;18.990;2022-07-17T09:37:58;99472.22;;;18.61;45.90
39491;BME280;25175;50.140;18.990;2022-07-17T09:41:04;99468.91;;;18.77;45.94
39491;BME280;25175;50.140;18.990;2022-07-17T09:44:17;99466.03;;;18.78;45.03
39491;BME280;25175;50.140;18.990;2022-07-17T09:47:21;99471.34;;;18.78;45.78
39491;BME280;25175;50.140;18.990;2022-07-17T09:50:25;99474.44;;;18.75;45.15
39491;BME280;25175;50.140;18.990;2022-07-17T09:53:29;99469.81;;;18.82;45.71
39491;BME280;25175;50.140;18.990;2022-07-17T09:56:34;99467.50;;;18.86;43.62
39491;BME280;25175;50.140;18.990;2022-07-17T09:59:37;99458.63;;;18.92;43.64
39491;BME280;25175;50.140;18.990;2022-07-17T10:02:41;99457.16;;;19.07;43.94
39491;BME280;25175;50.140;18.990;2022-07-17T10:05:44;99462.69;;;19.06;43.67
39491;BME280;25175;50.140;18.990;2022-07-17T10:08:46;99458.63;;;18.92;43.12
39491;BME280;25175;50.140;18.990;2022-07-17T10:11:50;99458.63;;;18.92;44.95
39491;BME280;25175;50.140;18.990;2022-07-17T10:14:53;99459.66;;;19.02;43.52
39491;BME280;25175;50.140;18.990;2022-07-17T10:18:06;99465.31;;;19.29;44.17
39491;BME280;25175;50.140;18.990;2022-07-17T10:21:15;99453.06;;;19.39;43.39
39491;BME280;25175;50.140;18.990;2022-07-17T10:24:17;99466.47;;;19.21;42.63
39491;BME280;25175;50.140;18.990;2022-07-17T10:27:24;99474.59;;;19.03;43.62
39491;BME280;25175;50.140;18.990;2022-07-17T10:30:27;99467.06;;;18.89;42.72
39491;BME280;25175;50.140;18.990;2022-07-17T10:33:31;99464.50;;;18.94;44.05
39491;BME280;25175;50.140;18.990;2022-07-17T10:36:35;99475.50;;;19.20;43.94
39491;BME280;25175;50.140;18.990;2022-07-17T10:39:37;99481.69;;;19.37;44.00
39491;BME280;25175;50.140;18.990;2022-07-17T10:46:01;99472.50;;;19.79;43.24
39491;BME280;25175;50.140;18.990;2022-07-17T10:49:04;99465.25;;;20.03;42.73
39491;BME280;25175;50.140;18.990;2022-07-17T10:52:08;99470.91;;;20.23;42.67
39491;BME280;25175;50.140;18.990;2022-07-17T10:55:18;99470.72;;;20.41;41.44
39491;BME280;25175;50.140;18.990;2022-07-17T10:58:23;99465.13;;;20.42;39.63
39491;BME280;25175;50.140;18.990;2022-07-17T11:01:25;99458.84;;;20.48;38.30
39491;BME280;25175;50.140;18.990;2022-07-17T11:04:36;99459.75;;;20.70;39.82
39491;BME280;25175;50.140;18.990;2022-07-17T11:07:55;99456.44;;;20.80;39.53
39491;BME280;25175;50.140;18.990;2022-07-17T11:10:59;99455.16;;;20.82;39.21
39491;BME280;25175;50.140;18.990;2022-07-17T11:14:12;99459.34;;;20.78;38.19
39491;BME280;25175;50.140;18.990;2022-07-17T11:17:18;99451.75;;;20.70;39.90
39491;BME280;25175;50.140;18.990;2022-07-17T11:20:22;99453.19;;;20.78;38.45
39491;BME280;25175;50.140;18.990;2022-07-17T11:23:26;99444.50;;;20.82;37.96
39491;BME280;25175;50.140;18.990;2022-07-17T11:26:28;99452.97;;;20.96;36.22
39491;BME280;25175;50.140;18.990;2022-07-17T11:29:35;99445.44;;;21.09;39.51
39491;BME280;25175;50.140;18.990;2022-07-17T11:32:38;99442.34;;;21.17;37.91
39491;BME280;25175;50.140;18.990;2022-07-17T11:35:45;99444.56;;;21.25;38.60
39491;BME280;25175;50.140;18.990;2022-07-17T11:38:48;99448.50;;;21.18;35.99
39491;BME280;25175;50.140;18.990;2022-07-17T11:41:52;99452.34;;;21.10;36.86
39491;BME280;25175;50.140;18.990;2022-07-17T11:44:55;99450.09;;;21.19;36.29
39491;BME280;25175;50.140;18.990;2022-07-17T11:48:00;99447.25;;;21.25;37.85
39491;BME280;25175;50.140;18.990;2022-07-17T11:51:04;99446.16;;;21.43;38.42
39491;BME280;25175;50.140;18.990;2022-07-17T11:54:08;99445.22;;;21.54;36.40
39491;BME280;25175;50.140;18.990;2022-07-17T11:57:12;99452.50;;;21.63;39.24
39491;BME280;25175;50.140;18.990;2022-07-17T12:00:15;99446.94;;;21.65;37.32
39491;BME280;25175;50.140;18.990;2022-07-17T12:03:25;99444.94;;;21.77;38.05
39491;BME280;25175;50.140;18.990;2022-07-17T12:06:28;99426.25;;;21.77;37.81
39491;BME280;25175;50.140;18.990;2022-07-17T12:09:33;99437.81;;;21.82;36.78
39491;BME280;25175;50.140;18.990;2022-07-17T12:12:35;99427.88;;;21.78;36.51
39491;BME280;25175;50.140;18.990;2022-07-17T12:15:39;99429.38;;;21.69;36.07
39491;BME280;25175;50.140;18.990;2022-07-17T12:18:41;99428.78;;;21.62;36.45
39491;BME280;25175;50.140;18.990;2022-07-17T12:21:54;99428.28;;;21.43;36.34
39491;BME280;25175;50.140;18.990;2022-07-17T12:24:57;99425.56;;;21.38;36.72
39491;BME280;25175;50.140;18.990;2022-07-17T12:27:59;99425.63;;;21.43;37.06
39491;BME280;25175;50.140;18.990;2022-07-17T12:31:01;99416.88;;;21.48;35.28
39491;BME280;25175;50.140;18.990;2022-07-17T12:34:03;99412.16;;;21.55;36.59
39491;BME280;25175;50.140;18.990;2022-07-17T12:37:07;99412.44;;;21.58;35.68
39491;BME280;25175;50.140;18.990;2022-07-17T12:40:09;99414.16;;;21.69;36.62
39491;BME280;25175;50.140;18.990;2022-07-17T12:43:12;99413.78;;;21.82;35.88
39491;BME280;25175;50.140;18.990;2022-07-17T12:46:14;99409.59;;;21.86;36.14
39491;BME280;25175;50.140;18.990;2022-07-17T12:49:17;99411.50;;;21.91;35.05
39491;BME280;25175;50.140;18.990;2022-07-17T12:52:21;99414.81;;;22.03;35.70
39491;BME280;25175;50.140;18.990;2022-07-17T12:55:23;99406.13;;;22.17;34.60
39491;BME280;25175;50.140;18.990;2022-07-17T12:58:26;99413.56;;;22.10;35.87
39491;BME280;25175;50.140;18.990;2022-07-17T13:01:28;99414.31;;;22.06;35.91
39491;BME280;25175;50.140;18.990;2022-07-17T13:04:30;99408.47;;;22.09;35.87
39491;BME280;25175;50.140;18.990;2022-07-17T13:07:34;99411.69;;;22.11;35.66
39491;BME280;25175;50.140;18.990;2022-07-17T13:10:36;99406.19;;;22.22;36.24
39491;BME280;25175;50.140;18.990;2022-07-17T13:13:39;99402.56;;;22.38;35.70
39491;BME280;25175;50.140;18.990;2022-07-17T13:16:41;99392.06;;;22.53;35.02
39491;BME280;25175;50.140;18.990;2022-07-17T13:19:44;99393.94;;;22.58;33.51
39491;BME280;25175;50.140;18.990;2022-07-17T13:22:47;99388.75;;;22.46;33.61
39491;BME280;25175;50.140;18.990;2022-07-17T13:25:49;99398.69;;;22.51;34.58
39491;BME280;25175;50.140;18.990;2022-07-17T13:28:52;99396.59;;;22.58;33.34
39491;BME280;25175;50.140;18.990;2022-07-17T13:31:54;99401.59;;;22.49;31.96
39491;BME280;25175;50.140;18.990;2022-07-17T13:34:56;99408.38;;;22.30;32.88
39491;BME280;25175;50.140;18.990;2022-07-17T13:38:00;99399.38;;;22.36;34.00
39491;BME280;25175;50.140;18.990;2022-07-17T13:41:04;99398.09;;;22.49;34.61
39491;BME280;25175;50.140;18.990;2022-07-17T13:44:07;99394.16;;;22.51;33.11
39491;BME280;25175;50.140;18.990;2022-07-17T13:47:11;99392.09;;;22.58;34.48
39491;BME280;25175;50.140;18.990;2022-07-17T13:50:14;99389.16;;;22.65;33.76
39491;BME280;25175;50.140;18.990;2022-07-17T13:53:17;99391.31;;;22.63;32.83
39491;BME280;25175;50.140;18.990;2022-07-17T13:56:19;99398.50;;;22.62;33.35
39491;BME280;25175;50.140;18.990;2022-07-17T13:59:22;99381.41;;;22.58;32.14
39491;BME280;25175;50.140;18.990;2022-07-17T14:02:24;99383.78;;;22.60;33.29
39491;BME280;25175;50.140;18.990;2022-07-17T14:05:26;99383.06;;;22.69;33.96
39491;BME280;25175;50.140;18.990;2022-07-17T14:08:30;99383.13;;;22.84;34.44
39491;BME280;25175;50.140;18.990;2022-07-17T14:11:32;99386.88;;;22.83;31.88
39491;BME280;25175;50.140;18.990;2022-07-17T14:14:34;99388.97;;;22.76;32.99
39491;BME280;25175;50.140;18.990;2022-07-17T14:17:36;99376.16;;;22.78;33.01
39491;BME280;25175;50.140;18.990;2022-07-17T14:20:39;99379.91;;;22.77;32.89
39491;BME280;25175;50.140;18.990;2022-07-17T14:23:42;99376.97;;;22.79;33.00
39491;BME280;25175;50.140;18.990;2022-07-17T14:26:45;99379.97;;;22.87;32.39
39491;BME280;25175;50.140;18.990;2022-07-17T14:29:48;99370.19;;;22.61;32.51
39491;BME280;25175;50.140;18.990;2022-07-17T14:32:51;99371.47;;;22.54;33.05
39491;BME280;25175;50.140;18.990;2022-07-17T14:35:53;99363.44;;;22.54;34.01
39491;BME280;25175;50.140;18.990;2022-07-17T14:38:56;99366.16;;;22.59;34.27
39491;BME280;25175;50.140;18.990;2022-07-17T14:41:59;99354.22;;;22.71;34.21
39491;BME280;25175;50.140;18.990;2022-07-17T14:45:01;99358.22;;;22.69;32.63
39491;BME280;25175;50.140;18.990;2022-07-17T14:48:03;99361.09;;;22.62;32.22
39491;BME280;25175;50.140;18.990;2022-07-17T14:51:06;99358.41;;;22.57;32.60
39491;BME280;25175;50.140;18.990;2022-07-17T14:54:09;99358.84;;;22.49;32.27
39491;BME280;25175;50.140;18.990;2022-07-17T14:57:11;99351.66;;;22.50;33.41
39491;BME280;25175;50.140;18.990;2022-07-17T15:00:13;99352.50;;;22.55;32.93
39491;BME280;25175;50.140;18.990;2022-07-17T15:03:16;99359.47;;;22.56;33.33
39491;BME280;25175;50.140;18.990;2022-07-17T15:06:18;99359.25;;;22.63;32.35
39491;BME280;25175;50.140;18.990;2022-07-17T15:09:22;99357.41;;;22.73;33.39
39491;BME280;25175;50.140;18.990;2022-07-17T15:12:24;99355.84;;;22.77;32.70
39491;BME280;25175;50.140;18.990;2022-07-17T15:15:27;99350.00;;;22.80;32.95
39491;BME280;25175;50.140;18.990;2022-07-17T15:18:29;99341.44;;;22.83;32.94
39491;BME280;25175;50.140;18.990;2022-07-17T15:21:31;99344.06;;;22.73;31.82
39491;BME280;25175;50.140;18.990;2022-07-17T15:24:35;99347.25;;;22.65;32.73
39491;BME280;25175;50.140;18.990;2022-07-17T15:27:37;99347.25;;;22.65;32.93
39491;BME280;25175;50.140;18.990;2022-07-17T15:30:39;99343.31;;;22.78;34.07
39491;BME280;25175;50.140;18.990;2022-07-17T15:33:42;99338.72;;;22.73;32.15
39491;BME280;25175;50.140;18.990;2022-07-17T15:36:44;99339.00;;;22.72;32.94
39491;BME280;25175;50.140;18.990;2022-07-17T15:39:47;99339.56;;;22.79;33.80
39491;BME280;25175;50.140;18.990;2022-07-17T15:42:50;99337.69;;;22.79;33.36
39491;BME280;25175;50.140;18.990;2022-07-17T15:45:53;99328.06;;;22.78;33.12
39491;BME280;25175;50.140;18.990;2022-07-17T15:48:55;99334.44;;;22.72;32.46
39491;BME280;25175;50.140;18.990;2022-07-17T15:51:58;99330.13;;;22.66;32.72
39491;BME280;25175;50.140;18.990;2022-07-17T15:55:02;99333.38;;;22.73;33.17
39491;BME280;25175;50.140;18.990;2022-07-17T15:58:05;99330.97;;;22.77;33.66
39491;BME280;25175;50.140;18.990;2022-07-17T16:01:07;99324.63;;;22.83;33.21